Time;durP1;ratioP1;P1;durP2;ratioP2;P2;SDS_P1;SDS_P2;PMS_P1;PMS_P2;Temp;Humidity;BMP_temperature;BMP_pressure;BME280_temperature;BME280_humidity;BME280_pressure;Samples;Min_cycle;Max_cycle;Signal;HPM_P1;HPM_P2
2022/05/28 00:03:24;;;;;;;;;;;;;;;;;;;;;
2022/05/28 00:06:51;;;;;;;;;;;;;;;;;;;;;
2022/05/28 00:10:12;;;;;;;;;;;;;;;;;;;;;
2022/05/28 00:13:29;;;;;;;;;;;;;;;;;;;;;
2022/05/28 00:16:36;;;;;;;6.60;0.70;;;;;;;9.75;59.19;98791.88;103968;1299;24434;-88
2022/05/28 00:19:34;;;;;;;9.60;1.10;;;;;;;9.75;59.21;98791.88;103808;1299;22677;-86
2022/05/28 00:23:36;;;;;;;7.50;1.20;;;;;;;9.77;59.17;98786.79;103376;1300;25472;-83
2022/05/28 00:26:03;;;;;;;9.30;1.00;;;;;;;9.76;59.24;98789.52;103478;1300;24206;-83
2022/05/28 00:29:37;;;;;;;;;;;;;;;;;;;;;
2022/05/28 00:32:53;;;;;;;6.60;1.10;;;;;;;9.72;59.24;98792.65;103511;1300;22762;-83
2022/05/28 00:35:33;;;;;;;7.20;1.30;;;;;;;9.70;59.30;98789.20;103630;1293;26909;-83
2022/05/28 00:38:55;;;;;;;10.10;1.00;;;;;;;9.68;59.34;98787.96;103998;1294;22602;-82
2022/05/28 00:41:37;;;;;;;8.40;1.00;;;;;;;9.68;59.36;98784.79;104841;1287;22541;-82
2022/05/28 00:44:58;;;;;;;6.40;0.80;;;;;;;9.66;59.35;98783.67;104608;1287;25284;-83
2022/05/28 00:47:57;;;;;;;7.00;1.00;;;;;;;9.63;59.34;98789.73;105392;1279;22579;-80
2022/05/28 00:51:37;;;;;;;7.80;1.10;;;;;;;9.60;59.18;98781.61;105648;1279;22701;-83
2022/05/28 00:54:05;;;;;;;8.50;1.10;;;;;;;9.57;59.39;98776.89;105595;1279;25358;-84
2022/05/28 00:57:28;;;;;;;;;;;;;;;;;;;;;
2022/05/28 01:00:34;;;;;;;8.40;0.90;;;;;;;9.43;59.39;98770.94;105675;1278;24204;-82
2022/05/28 01:03:45;;;;;;;7.60;0.80;;;;;;;9.41;59.37;98771.98;105567;1279;22564;-81
2022/05/28 01:06:40;;;;;;;8.40;0.80;;;;;;;9.36;59.43;98772.85;105715;1279;24227;-83
2022/05/28 01:10:06;;;;;;;9.70;1.20;;;;;;;9.34;59.38;98769.77;105688;1279;24329;-82
2022/05/28 01:17:28;;;;;;;8.70;1.00;;;;;;;9.36;59.33;98770.07;104831;1285;25634;-81
2022/05/28 01:21:02;;;;;;;9.10;0.90;;;;;;;9.36;59.45;98764.54;104284;1291;22719;-82
2022/05/28 01:24:14;;;;;;;7.20;0.90;;;;;;;9.36;59.41;98761.86;104628;1288;25435;-78
2022/05/28 01:27:45;;;;;;;;;;;;;;;;;;;;;
2022/05/28 01:31:32;;;;;;;;;;;;;;;;;;;;;
2022/05/28 01:34:59;;;;;;;;;;;;;;;;;;;;;
2022/05/28 01:38:39;;;;;;;;;;;;;;;;;;;;;
2022/05/28 01:42:20;;;;;;;;;;;;;;;;;;;;;
2022/05/28 01:45:34;;;;;;;6.90;0.70;;;;;;;9.40;59.57;98755.66;103461;1303;22714;-84
2022/05/28 01:49:28;;;;;;;5.80;0.70;;;;;;;9.40;59.27;98756.55;103338;1303;24352;-80
2022/05/28 01:52:58;;;;;;;5.30;0.90;;;;;;;9.44;59.73;98753.42;103665;1300;22578;-84
2022/05/28 01:55:46;;;;;;;;;;;;;;;;;;;;;
2022/05/28 01:59:37;;;;;;;8.90;0.90;;;;;;;9.47;59.53;98750.04;103933;1297;22748;-85
2022/05/28 02:02:40;;;;;;;5.70;0.70;;;;;;;9.44;59.62;98745.48;103993;1300;24277;-84
2022/05/28 02:05:43;;;;;;;9.90;1.00;;;;;;;9.40;59.46;98742.70;103955;1300;24278;-84
2022/05/28 02:08:57;;;;;;;7.50;0.80;;;;;;;9.39;59.52;98739.23;103598;1303;22543;-82
2022/05/28 02:11:57;;;;;;;8.40;1.00;;;;;;;9.39;59.70;98734.22;103373;1303;22591;-89
2022/05/28 02:14:54;;;;;;;8.30;1.10;;;;;;;9.40;59.71;98731.00;103470;1300;22674;-82
2022/05/28 02:18:07;;;;;;;8.80;0.90;;;;;;;9.38;59.70;98727.21;104065;1294;25260;-82
2022/05/28 02:21:18;;;;;;;8.60;1.40;;;;;;;9.35;59.78;98729.08;104189;1293;24284;-83
2022/05/28 02:24:32;;;;;;;7.00;0.70;;;;;;;9.34;59.74;98725.95;104203;1293;22550;-80
2022/05/28 02:27:37;;;;;;;8.10;1.00;;;;;;;9.32;59.66;98725.58;104051;1293;23209;-83
2022/05/28 02:30:48;;;;;;;6.30;0.80;;;;;;;9.32;59.92;98721.29;104158;1293;24318;-86
2022/05/28 02:33:56;;;;;;;6.80;1.00;;;;;;;9.34;59.68;98715.11;104310;1293;24383;-84
2022/05/28 02:36:26;;;;;;;7.30;0.70;;;;;;;9.32;59.70;98704.04;104193;1293;24229;-83
2022/05/28 02:39:14;;;;;;;9.00;1.20;;;;;;;9.29;59.86;98706.20;104276;1288;22565;-84
2022/05/28 02:42:16;;;;;;;8.20;1.20;;;;;;;9.27;59.79;98710.62;104996;1285;22661;-83
2022/05/28 02:45:10;;;;;;;7.10;1.00;;;;;;;9.27;59.97;98711.02;105152;1278;22660;-82
2022/05/28 02:48:05;;;;;;;9.60;1.10;;;;;;;9.24;60.01;98711.58;105570;1278;23961;-82
2022/05/28 02:51:08;;;;;;;9.40;1.00;;;;;;;9.23;60.00;98708.24;105731;1279;22564;-81
2022/05/28 02:53:44;;;;;;;8.00;1.40;;;;;;;9.24;59.91;98707.63;105870;1279;25262;-84
2022/05/28 02:56:39;;;;;;;9.20;1.20;;;;;;;9.26;59.98;98706.45;105749;1279;24440;-82
2022/05/28 02:59:48;;;;;;;6.70;0.90;;;;;;;9.28;60.10;98701.30;105819;1279;22926;-82
2022/05/28 03:03:34;;;;;;;8.10;1.00;;;;;;;9.29;60.14;98700.36;105753;1277;22549;-83
2022/05/28 03:05:44;;;;;;;7.70;1.20;;;;;;;9.31;60.20;98701.98;105732;1278;22542;-82
2022/05/28 03:08:32;;;;;;;8.70;1.00;;;;;;;9.33;60.04;98705.88;105709;1281;22549;-85
2022/05/28 03:11:37;;;;;;;8.30;1.10;;;;;;;9.38;60.16;98704.14;105871;1278;24400;-82
2022/05/28 03:14:36;;;;;;;7.60;0.90;;;;;;;9.43;60.21;98696.52;105672;1279;25240;-85
2022/05/28 03:17:24;;;;;;;8.80;0.90;;;;;;;9.43;60.10;98697.89;105772;1279;25255;-82
2022/05/28 03:21:30;;;;;;;6.20;0.90;;;;;;;9.40;60.11;98700.42;105680;1281;23187;-83
2022/05/28 03:24:07;;;;;;;8.30;1.00;;;;;;;9.37;60.30;98712.90;105991;1276;24074;-82
2022/05/28 03:28:20;;;;;;;6.70;0.80;;;;;;;9.38;60.43;98707.33;105848;1278;25305;-81
2022/05/28 03:31:30;;;;;;;;;;;;;;;;;;;;;
2022/05/28 03:34:22;;;;;;;9.20;0.90;;;;;;;9.45;60.21;98710.04;105658;1283;23358;-83
2022/05/28 03:41:01;;;;;;;;;;;;;;;;;;;;;
2022/05/28 03:44:27;;;;;;;10.50;0.90;;;;;;;9.51;60.31;98707.63;105708;1283;25293;-82
2022/05/28 03:47:59;;;;;;;;;;;;;;;;;;;;;
2022/05/28 03:51:39;;;;;;;;;;;;;;;;;;;;;
2022/05/28 03:55:29;;;;;;;;;;;;;;;;;;;;;
2022/05/28 03:58:33;;;;;;;;;;;;;;;;;;;;;
2022/05/28 04:02:18;;;;;;;7.50;0.90;;;;;;;9.62;60.29;98728.37;104877;1288;25601;-82
2022/05/28 04:05:50;;;;;;;;;;;;;;;;;;;;;
2022/05/28 04:09:00;;;;;;;;;;;;;;;;;;;;;
2022/05/28 04:12:11;;;;;;;6.50;0.70;;;;;;;9.58;60.41;98748.36;104436;1291;24272;-87
2022/05/28 04:14:58;;;;;;;5.50;0.60;;;;;;;9.56;60.20;98742.31;104480;1290;22572;-82
2022/05/28 04:18:09;;;;;;;;;;;;;;;;;;;;;
2022/05/28 04:21:24;;;;;;;;;;;;;;;;;;;;;
2022/05/28 04:24:28;;;;;;;6.00;0.50;;;;;;;9.58;60.19;98741.61;104465;1291;24327;-80
2022/05/28 04:27:41;;;;;;;4.30;0.40;;;;;;;9.64;60.26;98738.84;104461;1294;22561;-85
2022/05/28 04:30:29;;;;;;;3.10;0.30;;;;;;;9.69;60.06;98736.35;105002;1284;24322;-80
2022/05/28 04:33:47;;;;;;;5.70;0.50;;;;;;;9.67;59.93;98737.35;105217;1284;24581;-84
2022/05/28 04:36:51;;;;;;;5.40;0.40;;;;;;;9.65;60.16;98738.94;105320;1284;25668;-84
2022/05/28 04:39:48;;;;;;;;;;;;;;;;;;;;;
2022/05/28 04:43:58;;;;;;;4.40;0.40;;;;;;;9.56;60.32;98736.77;105078;1284;22659;-92
2022/05/28 04:46:34;;;;;;;5.90;0.60;;;;;;;9.59;60.50;98732.83;105688;1278;22583;-88
2022/05/28 04:49:23;;;;;;;3.20;0.60;;;;;;;9.64;60.48;98730.27;105811;1280;23957;-82
2022/05/28 04:52:43;;;;;;;7.40;0.80;;;;;;;9.64;60.39;98728.88;105801;1277;22825;-82
2022/05/28 04:55:48;;;;;;;;;;;;;;;;;;;;;
2022/05/28 04:59:06;;;;;;;4.50;0.80;;;;;;;9.77;60.58;98721.70;105895;1277;23956;-83
2022/05/28 05:02:01;;;;;;;6.20;1.20;;;;;;;9.85;60.71;98723.58;105650;1281;22576;-80
2022/05/28 05:05:45;;;;;;;6.20;0.70;;;;;;;9.87;60.47;98720.98;105713;1278;25220;-86
2022/05/28 05:08:18;;;;;;;4.70;0.70;;;;;;;9.86;60.47;98719.83;105700;1277;22831;-82
2022/05/28 05:11:43;;;;;;;;;;;;;;;;;;;;;
2022/05/28 05:14:39;;;;;;;4.40;0.40;;;;;;;9.95;60.42;98711.42;105900;1278;22555;-84
2022/05/28 05:18:09;;;;;;;;;;;;;;;;;;;;;
2022/05/28 05:21:19;;;;;;;;;;;;;;;;;;;;;
2022/05/28 05:24:20;;;;;;;9.40;1.20;;;;;;;10.69;60.39;98703.00;105797;1281;22868;-81
2022/05/28 05:27:34;;;;;;;;;;;;;;;;;;;;;
2022/05/28 05:31:01;;;;;;;;;;;;;;;;;;;;;
2022/05/28 05:34:42;;;;;;;;;;;;;;;;;;;;;
2022/05/28 05:38:15;;;;;;;;;;;;;;;;;;;;;
2022/05/28 05:42:11;;;;;;;4.80;0.80;;;;;;;11.29;60.12;98707.09;104653;1291;22765;-83
2022/05/28 05:44:56;;;;;;;;;;;;;;;;;;;;;
2022/05/28 05:48:08;;;;;;;5.20;0.90;;;;;;;11.57;59.99;98696.82;104589;1291;25311;-80
2022/05/28 05:51:06;;;;;;;7.40;0.70;;;;;;;11.88;59.89;98695.89;104477;1290;24550;-86
2022/05/28 05:54:12;;;;;;;;;;;;;;;;;;;;;
2022/05/28 05:57:02;;;;;;;;;;;;;;;;;;;;;
2022/05/28 05:59:42;;;;;;;5.60;0.70;;;;;;;12.49;59.58;98683.02;104583;1290;22564;-82
2022/05/28 06:02:38;;;;;;;5.60;0.80;;;;;;;12.66;59.41;98683.56;104488;1290;22675;-86
2022/05/28 06:05:38;;;;;;;8.90;1.10;;;;;;;12.97;59.48;98679.39;104525;1291;24393;-87
2022/05/28 06:08:33;;;;;;;5.60;0.80;;;;;;;13.39;59.42;98674.45;104388;1290;22638;-82
2022/05/28 06:11:26;;;;;;;5.70;0.70;;;;;;;13.50;58.38;98680.08;104431;1291;22674;-87
2022/05/28 06:14:19;;;;;;;8.00;1.30;;;;;;;13.30;58.34;98682.40;104675;1284;22543;-86
2022/05/28 06:17:08;;;;;;;;;;;;;;;;;;;;;
2022/05/28 06:19:53;;;;;;;5.00;0.70;;;;;;;13.04;58.37;98667.32;105789;1277;24204;-84
2022/05/28 06:22:42;;;;;;;5.20;0.70;;;;;;;13.22;58.66;98657.89;105876;1278;22560;-83
2022/05/28 06:25:47;;;;;;;4.70;0.50;;;;;;;13.33;58.10;98648.30;105794;1278;26449;-84
2022/05/28 06:28:28;;;;;;;6.70;0.70;;;;;;;13.23;57.92;98659.93;105641;1278;24115;-83
2022/05/28 06:31:12;;;;;;;9.10;0.90;;;;;;;13.17;57.93;98673.32;105771;1280;22697;-87
2022/05/28 06:34:18;;;;;;;;;;;;;;;;;;;;;
2022/05/28 06:37:29;;;;;;;6.00;0.80;;;;;;;13.17;56.92;98670.24;105225;1284;25285;-80
2022/05/28 06:40:14;;;;;;;4.90;0.40;;;;;;;13.02;57.56;98665.93;105215;1285;25594;-80
2022/05/28 06:43:02;;;;;;;5.10;0.70;;;;;;;12.91;58.05;98657.25;105347;1284;25781;-80
2022/05/28 06:46:08;;;;;;;5.10;0.70;;;;;;;13.03;58.37;98667.09;105233;1284;23194;-78
2022/05/28 06:49:19;;;;;;;4.20;0.70;;;;;;;12.92;57.63;98668.06;105275;1284;22583;-86
2022/05/28 06:52:09;;;;;;;8.30;0.80;;;;;;;12.81;58.24;98666.13;105217;1284;23186;-86
2022/05/28 06:55:08;;;;;;;5.90;0.60;;;;;;;13.09;57.98;98666.89;105181;1284;22562;-81
2022/05/28 06:57:52;;;;;;;5.90;0.60;;;;;;;13.14;57.75;98663.90;105433;1284;25343;-81
2022/05/28 07:00:56;;;;;;;;;;;;;;;;;;;;;
2022/05/28 07:04:34;;;;;;;3.00;0.50;;;;;;;13.02;57.66;98663.81;105581;1284;22590;-82
2022/05/28 07:06:45;;;;;;;4.80;0.80;;;;;;;13.03;57.66;98662.98;105303;1283;24408;-84
2022/05/28 07:09:47;;;;;;;4.20;0.60;;;;;;;12.97;57.69;98650.60;105260;1284;22635;-80
2022/05/28 07:12:39;;;;;;;5.70;0.80;;;;;;;13.05;57.64;98659.89;105202;1285;22707;-83
2022/05/28 07:15:18;;;;;;;7.20;0.60;;;;;;;13.42;57.65;98650.56;105709;1277;22740;-81
2022/05/28 07:18:03;;;;;;;3.60;0.70;;;;;;;13.73;57.19;98654.86;105543;1278;22579;-82
2022/05/28 07:20:34;;;;;;;5.80;0.80;;;;;;;13.96;55.98;98649.01;105755;1278;26467;-81
2022/05/28 07:23:42;;;;;;;4.70;0.60;;;;;;;14.04;55.84;98653.95;105800;1277;22578;-80
2022/05/28 07:26:45;;;;;;;;;;;;;;;;;;;;;
2022/05/28 07:29:25;;;;;;;5.90;0.60;;;;;;;14.32;55.49;98640.07;105813;1278;22635;-81
2022/05/28 07:32:22;;;;;;;;;;;;;;;;;;;;;
2022/05/28 07:34:52;;;;;;;4.10;0.50;;;;;;;14.11;55.18;98643.86;105785;1277;25311;-83
2022/05/28 07:37:38;;;;;;;5.10;0.40;;;;;;;14.18;54.89;98653.74;105644;1276;22608;-80
2022/05/28 07:41:28;;;;;;;;;;;;;;;;;;;;;
2022/05/28 07:44:12;;;;;;;6.30;0.60;;;;;;;14.61;55.24;98645.64;105631;1278;22807;-82
2022/05/28 07:47:25;;;;;;;4.70;0.50;;;;;;;14.68;55.52;98633.54;105618;1276;22550;-79
2022/05/28 07:49:35;;;;;;;4.10;0.40;;;;;;;14.52;54.49;98637.64;105738;1277;22532;-77
2022/05/28 07:52:57;;;;;;;6.30;0.50;;;;;;;14.08;55.06;98644.48;106105;1276;22642;-80
2022/05/28 07:56:08;;;;;;;3.70;0.60;;;;;;;13.81;55.45;98645.08;106319;1276;22928;-82
2022/05/28 07:59:13;;;;;;;5.60;0.50;;;;;;;13.85;55.61;98644.86;105819;1277;23493;-83
2022/05/28 08:01:55;;;;;;;6.60;0.80;;;;;;;14.01;55.17;98643.16;105887;1277;23907;-84
2022/05/28 08:04:51;;;;;;;4.50;0.40;;;;;;;14.23;55.06;98638.77;105607;1279;24227;-82
2022/05/28 08:07:52;;;;;;;4.00;0.90;;;;;;;14.44;54.88;98638.95;105918;1277;24209;-81
2022/05/28 08:10:56;;;;;;;;;;;;;;;;;;;;;
2022/05/28 08:14:16;;;;;;;;;;;;;;;;;;;;;
2022/05/28 08:17:09;;;;;;;8.70;0.60;;;;;;;14.43;53.91;98656.12;105896;1277;22916;-78
2022/05/28 08:20:11;;;;;;;3.90;0.50;;;;;;;14.71;53.87;98651.49;105984;1277;25353;-78
2022/05/28 08:23:19;;;;;;;4.20;0.40;;;;;;;14.58;54.01;98651.64;106007;1278;24288;-83
2022/05/28 08:26:30;;;;;;;3.30;0.40;;;;;;;14.38;52.98;98649.05;105665;1277;24308;-80
2022/05/28 08:29:14;;;;;;;4.90;0.50;;;;;;;14.36;53.61;98639.53;105778;1278;22695;-80
2022/05/28 08:32:16;;;;;;;7.40;0.80;;;;;;;14.40;54.04;98642.05;105584;1277;22539;-80
2022/05/28 08:34:53;;;;;;;4.70;0.50;;;;;;;14.59;53.85;98636.70;105920;1278;24214;-83
2022/05/28 08:38:25;;;;;;;5.10;0.70;;;;;;;14.81;54.05;98640.27;105784;1278;25584;-78
2022/05/28 08:41:23;;;;;;;;;;;;;;;;;;;;;
2022/05/28 08:44:37;;;;;;;4.20;0.60;;;;;;;15.30;53.40;98635.16;105359;1284;25346;-81
2022/05/28 08:48:01;;;;;;;;;;;;;;;;;;;;;
2022/05/28 08:51:30;;;;;;;2.60;0.40;;;;;;;14.65;52.86;98640.27;105146;1284;22824;-85
2022/05/28 08:54:36;;;;;;;3.40;0.40;;;;;;;14.67;52.96;98642.34;105517;1282;25410;-82
2022/05/28 08:57:19;;;;;;;3.60;0.30;;;;;;;14.61;53.43;98644.67;106140;1282;22649;-77
2022/05/28 09:00:33;;;;;;;3.50;0.50;;;;;;;14.96;53.92;98648.36;105201;1282;22586;-77
2022/05/28 09:03:50;;;;;;;2.80;0.50;;;;;;;15.30;53.03;98643.41;105374;1283;22593;-80
2022/05/28 09:06:54;;;;;;;;;;;;;;;;;;;;;
2022/05/28 09:09:57;;;;;;;3.50;0.40;;;;;;;15.74;52.96;98646.06;105487;1282;24514;-84
2022/05/28 09:13:06;;;;;;;6.90;0.50;;;;;;;15.65;51.99;98647.48;105560;1284;22647;-78
2022/05/28 09:16:37;;;;;;;;;;;;;;;;;;;;;
2022/05/28 09:19:32;;;;;;;;;;;;;;;;;;;;;
2022/05/28 09:22:41;;;;;;;4.80;0.40;;;;;;;15.36;52.17;98668.27;106094;1277;23887;-78
2022/05/28 09:25:40;;;;;;;;;;;;;;;;;;;;;
2022/05/28 09:28:50;;;;;;;;;;;;;;;;;;;;;
2022/05/28 09:32:54;;;;;;;2.30;0.60;;;;;;;13.66;53.53;98699.68;106253;1277;24384;-81
2022/05/28 09:36:17;;;;;;;3.60;0.50;;;;;;;13.17;54.23;98740.75;105659;1279;22566;-83
2022/05/28 09:44:01;;;;;;;;;;;;;;;;;;;;;
2022/05/28 09:47:44;;;;;;;;;;;;;;;;;;;;;
2022/05/28 09:52:18;;;;;;;1.40;0.30;;;;;;;12.03;55.28;98738.55;105142;1284;23938;-81
2022/05/28 09:55:45;;;;;;;;;;;;;;;;;;;;;
2022/05/28 09:58:50;;;;;;;1.70;0.40;;;;;;;12.85;54.77;98732.06;104469;1290;24301;-79
2022/05/28 10:02:07;;;;;;;;;;;;;;;;;;;;;
2022/05/28 10:05:55;;;;;;;;;;;;;;;;;;;;;
2022/05/28 10:09:18;;;;;;;;;;;;;;;;;;;;;
2022/05/28 10:13:10;;;;;;;1.60;0.30;;;;;;;11.74;54.90;98726.61;103581;1300;22608;-79
2022/05/28 10:15:51;;;;;;;;;;;;;;;;;;;;;
2022/05/28 10:18:56;;;;;;;4.10;0.40;;;;;;;12.56;54.99;98713.88;103873;1297;24275;-80
2022/05/28 10:21:55;;;;;;;4.10;0.50;;;;;;;12.77;54.50;98706.20;104094;1295;22556;-78
2022/05/28 10:25:24;;;;;;;4.40;0.40;;;;;;;13.00;54.74;98702.90;104409;1294;22705;-80
2022/05/28 10:28:26;;;;;;;4.10;0.70;;;;;;;13.41;54.76;98694.80;104016;1294;23347;-79
2022/05/28 10:31:40;;;;;;;4.70;0.50;;;;;;;13.75;54.26;98689.27;104788;1290;22528;-80
2022/05/28 10:34:47;;;;;;;2.90;0.40;;;;;;;14.00;54.25;98684.11;104541;1285;23022;-82
2022/05/28 10:37:19;;;;;;;3.50;0.50;;;;;;;14.32;54.44;98679.09;105054;1285;23967;-76
2022/05/28 10:40:36;;;;;;;4.90;0.60;;;;;;;14.54;53.92;98672.46;104839;1285;25457;-80
2022/05/28 10:43:36;;;;;;;;;;;;;;;;;;;;;
2022/05/28 10:47:28;;;;;;;5.40;0.90;;;;;;;14.93;52.75;98687.31;105355;1283;24349;-79
2022/05/28 10:51:11;;;;;;;;;;;;;;;;;;;;;
2022/05/28 10:54:12;;;;;;;2.60;0.50;;;;;;;14.77;53.21;98687.77;105387;1284;22657;-81
2022/05/28 10:57:50;;;;;;;2.20;0.40;;;;;;;14.91;54.15;98690.95;105256;1282;22550;-79
2022/05/28 11:00:50;;;;;;;2.10;0.40;;;;;;;15.44;53.67;98683.11;104455;1290;22640;-77
2022/05/28 11:03:49;;;;;;;4.90;0.60;;;;;;;15.52;52.40;98693.43;104239;1291;24108;-76
2022/05/28 11:07:04;;;;;;;4.10;0.50;;;;;;;15.70;52.81;98699.02;104379;1290;23263;-81
2022/05/28 11:10:07;;;;;;;3.70;0.40;;;;;;;15.28;51.87;98712.45;104850;1291;23023;-79
2022/05/28 11:13:54;;;;;;;;;;;;;;;;;;;;;
2022/05/28 11:16:52;;;;;;;2.00;0.30;;;;;;;15.16;52.61;98717.17;104465;1290;22575;-77
2022/05/28 11:19:31;;;;;;;1.30;0.30;;;;;;;14.98;52.33;98708.39;104724;1285;24210;-80
2022/05/28 11:22:44;;;;;;;2.40;0.30;;;;;;;14.71;52.96;98709.88;105065;1284;25557;-78
2022/05/28 11:26:11;;;;;;;3.30;0.40;;;;;;;14.67;52.10;98710.28;105110;1284;24267;-78
2022/05/28 11:29:39;;;;;;;3.20;0.40;;;;;;;14.38;52.65;98705.77;104385;1290;24234;-79
2022/05/28 11:32:38;;;;;;;;;;;;;;;;;;;;;
2022/05/28 11:35:42;;;;;;;5.80;1.40;;;;;;;14.71;53.13;98693.02;104839;1291;25231;-78
2022/05/28 11:38:47;;;;;;;12.00;4.80;;;;;;;14.97;53.60;98692.69;104949;1287;22597;-78
2022/05/28 11:41:46;;;;;;;8.90;1.80;;;;;;;15.30;53.01;98691.08;105567;1285;23228;-78
2022/05/28 11:45:05;;;;;;;7.40;1.30;;;;;;;15.48;52.84;98687.44;105153;1285;22552;-78
2022/05/28 11:47:44;;;;;;;3.90;0.60;;;;;;;15.72;53.04;98687.38;105427;1285;24202;-78
2022/05/28 11:54:25;;;;;;;4.10;0.70;;;;;;;15.81;51.64;98690.90;105303;1285;22895;-81
2022/05/28 11:57:30;;;;;;;5.00;0.40;;;;;;;15.46;51.91;98698.91;105304;1285;23077;-78
2022/05/28 12:00:07;;;;;;;4.10;0.70;;;;;;;15.09;52.31;98702.86;104903;1286;22560;-84
2022/05/28 12:03:17;;;;;;;5.00;0.60;;;;;;;14.79;52.26;98729.75;105032;1287;25270;-78
2022/05/28 12:09:47;;;;;;;4.30;0.50;;;;;;;13.99;52.99;98729.97;105370;1279;25411;-76
2022/05/28 12:12:47;;;;;;;;;;;;;;;;;;;;;
2022/05/28 12:15:45;;;;;;;3.20;0.60;;;;;;;14.37;52.94;98721.23;103308;1276;22559;-78
2022/05/28 12:18:57;;;;;;;4.60;0.70;;;;;;;14.53;52.81;98716.82;106343;1276;22553;-83
2022/05/28 12:22:08;;;;;;;3.20;0.40;;;;;;;14.90;53.00;98722.63;105841;1279;22566;-77
2022/05/28 12:25:28;;;;;;;;;;;;;;;;;;;;;
2022/05/28 12:28:33;;;;;;;4.60;0.60;;;;;;;15.21;52.85;98732.70;105794;1277;22548;-78
2022/05/28 12:31:47;;;;;;;4.20;0.60;;;;;;;15.10;52.77;98727.33;106529;1278;22581;-77
2022/05/28 12:35:29;;;;;;;;;;;;;;;;;;;;;
2022/05/28 12:41:38;;;;;;;2.10;0.30;;;;;;;13.09;53.42;98739.80;106161;1278;24967;-81
2022/05/28 12:44:51;;;;;;;3.00;0.30;;;;;;;12.48;53.94;98758.81;105823;1279;24234;-86
2022/05/28 12:48:12;;;;;;;;;;;;;;;;;;;;;
2022/05/28 12:51:42;;;;;;;;;;;;;;;;;;;;;
2022/05/28 12:55:13;;;;;;;1.70;0.30;;;;;;;11.70;55.08;98752.85;105803;1278;22598;-82
2022/05/28 12:58:27;;;;;;;1.90;0.40;;;;;;;11.57;55.51;98752.25;105821;1278;24343;-88
2022/05/28 13:02:18;;;;;;;2.00;0.40;;;;;;;11.60;55.80;98734.52;104689;1290;22583;-85
2022/05/28 13:06:20;;;;;;;2.80;0.60;;;;;;;12.00;55.88;98724.67;104248;1294;25270;-84
2022/05/28 13:09:27;;;;;;;4.10;0.90;;;;;;;12.35;55.99;98711.70;104440;1294;24007;-89
2022/05/28 13:12:34;;;;;;;3.30;0.60;;;;;;;12.74;55.71;98711.80;104575;1291;25269;-85
2022/05/28 13:15:48;;;;;;;3.80;0.80;;;;;;;13.17;55.95;98713.55;104592;1292;25216;-79
2022/05/28 13:19:41;;;;;;;;;;;;;;;;;;;;;
2022/05/28 13:23:20;;;;;;;2.90;0.70;;;;;;;13.73;55.06;98698.70;104385;1291;22785;-84
2022/05/28 13:27:18;;;;;;;;;;;;;;;;;;;;;
2022/05/28 13:30:28;;;;;;;;;;;;;;;;;;;;;
2022/05/28 13:34:22;;;;;;;;;;;;;;;;;;;;;
2022/05/28 13:41:11;;;;;;;5.20;0.70;;;;;;;12.56;56.25;98719.60;107895;1265;22547;-89
2022/05/28 13:44:05;;;;;;;;;;;;;;;;;;;;;
2022/05/28 13:47:04;;;;;;;5.20;0.80;;;;;;;13.08;56.86;98723.12;107016;1276;25436;-87
2022/05/28 13:50:46;;;;;;;;;;;;;;;;;;;;;
2022/05/28 13:54:03;;;;;;;;;;;;;;;;;;;;;
2022/05/28 13:57:36;;;;;;;;;;;;;;;;;;;;;
2022/05/28 14:01:09;;;;;;;;;;;;;;;;;;;;;
2022/05/28 14:04:36;;;;;;;;;;;;;;;;;;;;;
2022/05/28 14:08:05;;;;;;;;;;;;;;;;;;;;;
2022/05/28 14:10:38;;;;;;;6.60;1.00;;;;;;;14.84;55.77;98693.58;104932;1288;22564;-87
2022/05/28 14:13:24;;;;;;;4.40;0.90;;;;;;;15.00;55.39;98695.83;104908;1288;22548;-86
2022/05/28 14:17:00;;;;;;;4.70;0.80;;;;;;;15.24;55.77;98695.27;104928;1288;22651;-86
2022/05/28 14:20:26;;;;;;;5.00;0.70;;;;;;;15.28;55.36;98695.27;104894;1288;22575;-83
2022/05/28 14:24:04;;;;;;;6.80;0.90;;;;;;;15.30;55.31;98693.45;105040;1288;22952;-87
2022/05/28 14:26:59;;;;;;;4.80;1.10;;;;;;;15.16;54.91;98694.11;104231;1294;22548;-87
2022/05/28 14:30:18;;;;;;;;;;;;;;;;;;;;;
2022/05/28 14:33:33;;;;;;;6.20;0.80;;;;;;;14.73;54.86;98697.14;104751;1291;22596;-81
2022/05/28 14:36:34;;;;;;;3.90;0.70;;;;;;;14.67;55.08;98699.56;104642;1285;24325;-84
2022/05/28 14:39:17;;;;;;;6.00;0.90;;;;;;;14.73;55.12;98697.34;105324;1282;22748;-82
2022/05/28 14:42:32;;;;;;;4.10;0.80;;;;;;;14.67;54.79;98696.86;105306;1284;25614;-83
2022/05/28 14:46:08;;;;;;;5.10;0.90;;;;;;;14.56;54.89;98701.96;105377;1282;25324;-85
2022/05/28 14:49:00;;;;;;;4.90;0.70;;;;;;;14.55;55.30;98704.53;105564;1282;24320;-82
2022/05/28 14:51:36;;;;;;;7.30;1.00;;;;;;;14.62;54.86;98699.08;105362;1282;22884;-82
2022/05/28 14:54:49;;;;;;;6.00;0.70;;;;;;;14.64;54.70;98694.27;105360;1282;25410;-84
2022/05/28 14:57:43;;;;;;;6.20;0.90;;;;;;;15.01;54.51;98685.33;105359;1284;25304;-83
2022/05/28 15:00:33;;;;;;;7.40;0.90;;;;;;;15.54;54.17;98687.38;105352;1282;25300;-79
2022/05/28 15:03:12;;;;;;;5.80;1.10;;;;;;;15.77;54.22;98685.64;105640;1279;23954;-80
2022/05/28 15:06:05;;;;;;;7.00;1.10;;;;;;;16.02;54.17;98684.02;105691;1276;24259;-82
2022/05/28 15:08:33;;;;;;;4.90;0.70;;;;;;;16.42;53.68;98684.27;105916;1276;25500;-84
2022/05/28 15:11:07;;;;;;;4.90;0.70;;;;;;;16.56;53.28;98681.73;105879;1276;22559;-83
2022/05/28 15:13:43;;;;;;;5.20;0.80;;;;;;;16.42;53.26;98680.80;105886;1276;22540;-84
2022/05/28 15:16:12;;;;;;;3.80;0.70;;;;;;;16.58;53.69;98673.28;105800;1276;25361;-83
2022/05/28 15:18:46;;;;;;;7.00;1.00;;;;;;;16.83;52.11;98677.75;105926;1276;25426;-77
2022/05/28 15:21:27;;;;;;;;;;;;;;;;;;;;;
2022/05/28 15:24:12;;;;;;;7.10;1.10;;;;;;;17.65;51.98;98670.80;105712;1276;25236;-85
2022/05/28 15:26:40;;;;;;;7.10;1.10;;;;;;;18.60;52.24;98667.84;105716;1276;22598;-79
2022/05/28 15:29:18;;;;;;;5.70;0.80;;;;;;;19.26;51.03;98667.52;105877;1276;22586;-82
2022/05/28 15:32:01;;;;;;;6.30;1.10;;;;;;;19.65;50.82;98665.08;105565;1276;22546;-80
2022/05/28 15:34:40;;;;;;;3.80;0.50;;;;;;;19.56;50.48;98667.92;105836;1277;25466;-82
2022/05/28 15:40:22;;;;;;;4.90;0.60;;;;;;;18.74;50.24;98665.70;105670;1276;22543;-84
2022/05/28 15:42:58;;;;;;;4.40;0.80;;;;;;;18.63;50.41;98666.09;105833;1276;22638;-81
2022/05/28 15:45:59;;;;;;;;;;;;;;;;;;;;;
2022/05/28 15:48:38;;;;;;;6.60;0.90;;;;;;;19.61;50.50;98663.23;105791;1276;22779;-85
2022/05/28 15:51:14;;;;;;;4.50;0.70;;;;;;;20.27;50.12;98659.41;105804;1277;25347;-81
2022/05/28 15:53:41;;;;;;;3.20;0.60;;;;;;;20.05;49.61;98657.20;105875;1277;26493;-81
2022/05/28 15:56:41;;;;;;;4.00;0.70;;;;;;;19.18;49.80;98663.48;105738;1277;22579;-87
2022/05/28 15:59:37;;;;;;;3.30;0.70;;;;;;;18.40;50.75;98665.13;105986;1276;25534;-82
2022/05/28 16:02:39;;;;;;;3.60;0.50;;;;;;;18.61;50.57;98665.21;105919;1276;22661;-81
2022/05/28 16:06:06;;;;;;;;;;;;;;;;;;;;;
2022/05/28 16:09:02;;;;;;;4.00;1.00;;;;;;;19.95;50.53;98658.67;105788;1276;23548;-84
2022/05/28 16:11:51;;;;;;;5.00;1.00;;;;;;;21.13;49.86;98653.05;105825;1276;24243;-82
2022/05/28 16:14:53;;;;;;;4.30;1.00;;;;;;;21.60;48.50;98654.84;105762;1276;22623;-86
2022/05/28 16:17:27;;;;;;;5.30;1.00;;;;;;;21.50;47.56;98654.67;105845;1276;25370;-80
2022/05/28 16:19:59;;;;;;;7.10;1.40;;;;;;;21.56;48.43;98643.08;106023;1276;22593;-86
2022/05/28 16:22:29;;;;;;;4.60;0.80;;;;;;;22.01;48.40;98646.83;105745;1276;22537;-84
2022/05/28 16:25:11;;;;;;;;;;;;;;;;;;;;;
2022/05/28 16:27:47;;;;;;;4.20;0.80;;;;;;;22.28;47.38;98651.27;105933;1276;24079;-81
2022/05/28 16:30:41;;;;;;;5.00;1.00;;;;;;;22.13;46.33;98652.92;105908;1276;24366;-85
2022/05/28 16:33:39;;;;;;;3.70;1.00;;;;;;;21.70;46.00;98658.53;105985;1276;25356;-81
2022/05/28 16:36:34;;;;;;;3.70;0.80;;;;;;;20.97;46.59;98662.94;105939;1276;25462;-81
2022/05/28 16:39:31;;;;;;;5.00;0.90;;;;;;;19.79;47.64;98670.05;105821;1276;22573;-81
2022/05/28 16:42:22;;;;;;;6.00;0.80;;;;;;;18.84;48.76;98673.92;105742;1279;22535;-84
2022/05/28 16:45:26;;;;;;;3.70;0.80;;;;;;;18.10;48.54;98678.59;105791;1276;22572;-84
2022/05/28 16:48:13;;;;;;;4.90;0.80;;;;;;;17.36;47.81;98678.78;105954;1276;25700;-85
2022/05/28 16:51:02;;;;;;;5.10;0.90;;;;;;;16.70;48.53;98682.14;105821;1277;25363;-80
2022/05/28 16:53:45;;;;;;;3.50;0.60;;;;;;;16.23;48.37;98682.44;105713;1276;22544;-85
2022/05/28 16:57:13;;;;;;;6.10;1.00;;;;;;;15.89;48.99;98684.75;105795;1276;24092;-86
2022/05/28 16:59:40;;;;;;;4.90;0.90;;;;;;;15.77;49.00;98689.90;105811;1279;22565;-85
2022/05/28 17:02:22;;;;;;;3.90;0.60;;;;;;;15.71;49.02;98695.02;105771;1277;22530;-86
2022/05/28 17:05:14;;;;;;;;;;;;;;;;;;;;;
2022/05/28 17:08:35;;;;;;;;;;;;;;;;;;;;;
2022/05/28 17:11:58;;;;;;;;;;;;;;;;;;;;;
2022/05/28 17:14:33;;;;;;;5.30;0.70;;;;;;;15.09;48.73;98709.30;105880;1276;25454;-80
2022/05/28 17:18:06;;;;;;;3.80;0.70;;;;;;;14.86;48.61;98705.42;105670;1276;22826;-82